sensor_id;sensor_type;location;lat;lon;timestamp;temperature;humidity
12268;DHT22;6196;48.398;11.736;2022-09-29T00:00:49;8.10;99.90
12268;DHT22;6196;48.398;11.736;2022-09-29T00:03:17;8.10;99.90
12268;DHT22;6196;48.398;11.736;2022-09-29T00:05:49;8.10;99.90
12268;DHT22;6196;48.398;11.736;2022-09-29T00:08:18;8.00;99.90
12268;DHT22;6196;48.398;11.736;2022-09-29T00:10:46;8.00;99.90
12268;DHT22;6196;48.398;11.736;2022-09-29T00:13:14;8.00;99.90
12268;DHT22;6196;48.398;11.736;2022-09-29T00:15:42;8.00;99.90
12268;DHT22;6196;48.398;11.736;2022-09-29T00:18:09;7.80;99.90
12268;DHT22;6196;48.398;11.736;2022-09-29T00:20:39;7.90;99.90
12268;DHT22;6196;48.398;11.736;2022-09-29T00:23:06;7.90;99.90
12268;DHT22;6196;48.398;11.736;2022-09-29T00:25:33;7.90;99.90
12268;DHT22;6196;48.398;11.736;2022-09-29T00:28:00;7.90;99.90
12268;DHT22;6196;48.398;11.736;2022-09-29T00:30:27;7.90;99.90
12268;DHT22;6196;48.398;11.736;2022-09-29T00:32:54;7.80;99.90
12268;DHT22;6196;48.398;11.736;2022-09-29T00:35:21;7.80;99.90
12268;DHT22;6196;48.398;11.736;2022-09-29T00:37:48;7.80;99.90
12268;DHT22;6196;48.398;11.736;2022-09-29T00:40:15;7.70;99.90
12268;DHT22;6196;48.398;11.736;2022-09-29T00:42:42;7.60;99.90
12268;DHT22;6196;48.398;11.736;2022-09-29T00:45:19;7.60;99.90
12268;DHT22;6196;48.398;11.736;2022-09-29T00:48:02;7.50;99.90
12268;DHT22;6196;48.398;11.736;2022-09-29T00:50:40;7.50;99.90
12268;DHT22;6196;48.398;11.736;2022-09-29T00:53:11;7.40;99.90
12268;DHT22;6196;48.398;11.736;2022-09-29T00:56:15;7.40;99.90
12268;DHT22;6196;48.398;11.736;2022-09-29T00:58:53;7.40;99.90
12268;DHT22;6196;48.398;11.736;2022-09-29T01:01:24;7.40;99.90
12268;DHT22;6196;48.398;11.736;2022-09-29T01:03:56;7.30;99.90
12268;DHT22;6196;48.398;11.736;2022-09-29T01:06:33;7.30;99.90
12268;DHT22;6196;48.398;11.736;2022-09-29T01:09:08;7.30;99.90
12268;DHT22;6196;48.398;11.736;2022-09-29T01:11:36;7.30;99.90
12268;DHT22;6196;48.398;11.736;2022-09-29T01:14:06;7.20;99.90
12268;DHT22;6196;48.398;11.736;2022-09-29T01:16:36;7.20;99.90
12268;DHT22;6196;48.398;11.736;2022-09-29T01:19:18;7.20;99.90
12268;DHT22;6196;48.398;11.736;2022-09-29T01:32:17;7.30;99.90
12268;DHT22;6196;48.398;11.736;2022-09-29T01:40:34;7.40;99.90
12268;DHT22;6196;48.398;11.736;2022-09-29T01:43:41;7.40;99.90
12268;DHT22;6196;48.398;11.736;2022-09-29T01:46:23;7.40;99.90
12268;DHT22;6196;48.398;11.736;2022-09-29T01:48:55;7.50;99.90
12268;DHT22;6196;48.398;11.736;2022-09-29T01:51:39;7.50;99.90
12268;DHT22;6196;48.398;11.736;2022-09-29T01:54:13;7.50;99.90
12268;DHT22;6196;48.398;11.736;2022-09-29T01:57:02;7.50;99.90
12268;DHT22;6196;48.398;11.736;2022-09-29T01:59:42;7.60;99.90
12268;DHT22;6196;48.398;11.736;2022-09-29T02:02:16;7.60;99.90
12268;DHT22;6196;48.398;11.736;2022-09-29T02:04:51;7.60;99.90
12268;DHT22;6196;48.398;11.736;2022-09-29T02:07:24;7.60;99.90
12268;DHT22;6196;48.398;11.736;2022-09-29T02:10:09;7.70;99.90
12268;DHT22;6196;48.398;11.736;2022-09-29T02:12:39;7.70;99.90
12268;DHT22;6196;48.398;11.736;2022-09-29T02:15:08;7.70;99.90
12268;DHT22;6196;48.398;11.736;2022-09-29T02:17:42;7.70;99.90
12268;DHT22;6196;48.398;11.736;2022-09-29T02:20:11;7.70;99.90
12268;DHT22;6196;48.398;11.736;2022-09-29T02:22:40;7.80;99.90
12268;DHT22;6196;48.398;11.736;2022-09-29T02:25:09;7.70;99.90
12268;DHT22;6196;48.398;11.736;2022-09-29T02:27:37;7.70;99.90
12268;DHT22;6196;48.398;11.736;2022-09-29T02:30:05;7.80;99.90
12268;DHT22;6196;48.398;11.736;2022-09-29T02:32:34;7.80;99.90
12268;DHT22;6196;48.398;11.736;2022-09-29T02:35:04;7.80;99.90
12268;DHT22;6196;48.398;11.736;2022-09-29T02:45:54;7.80;99.90
12268;DHT22;6196;48.398;11.736;2022-09-29T02:54:06;7.90;99.90
12268;DHT22;6196;48.398;11.736;2022-09-29T02:57:49;7.90;99.90
12268;DHT22;6196;48.398;11.736;2022-09-29T03:00:09;7.90;99.90
12268;DHT22;6196;48.398;11.736;2022-09-29T03:02:40;7.90;99.90
12268;DHT22;6196;48.398;11.736;2022-09-29T03:05:10;7.90;99.90
12268;DHT22;6196;48.398;11.736;2022-09-29T03:07:39;7.90;99.90
12268;DHT22;6196;48.398;11.736;2022-09-29T03:10:07;7.90;99.90
12268;DHT22;6196;48.398;11.736;2022-09-29T03:12:35;7.90;99.90
12268;DHT22;6196;48.398;11.736;2022-09-29T03:15:03;7.90;99.90
12268;DHT22;6196;48.398;11.736;2022-09-29T03:17:30;7.80;99.90
12268;DHT22;6196;48.398;11.736;2022-09-29T03:19:57;7.80;99.90
12268;DHT22;6196;48.398;11.736;2022-09-29T03:22:24;7.80;99.90
12268;DHT22;6196;48.398;11.736;2022-09-29T03:24:51;7.80;99.90
12268;DHT22;6196;48.398;11.736;2022-09-29T03:27:18;7.90;99.90
12268;DHT22;6196;48.398;11.736;2022-09-29T03:29:45;7.90;99.90
12268;DHT22;6196;48.398;11.736;2022-09-29T03:32:12;7.90;99.90
12268;DHT22;6196;48.398;11.736;2022-09-29T03:34:38;7.80;99.90
12268;DHT22;6196;48.398;11.736;2022-09-29T03:37:05;7.80;99.90
12268;DHT22;6196;48.398;11.736;2022-09-29T03:39:32;7.80;99.90
12268;DHT22;6196;48.398;11.736;2022-09-29T03:41:59;7.80;99.90
12268;DHT22;6196;48.398;11.736;2022-09-29T03:44:26;7.70;99.90
12268;DHT22;6196;48.398;11.736;2022-09-29T03:46:52;7.60;99.90
12268;DHT22;6196;48.398;11.736;2022-09-29T03:49:19;7.50;99.90
12268;DHT22;6196;48.398;11.736;2022-09-29T03:51:46;7.50;99.90
12268;DHT22;6196;48.398;11.736;2022-09-29T03:54:13;7.50;99.90
12268;DHT22;6196;48.398;11.736;2022-09-29T03:56:40;7.50;99.90
12268;DHT22;6196;48.398;11.736;2022-09-29T03:59:07;7.60;99.90
12268;DHT22;6196;48.398;11.736;2022-09-29T04:01:37;7.50;99.90
12268;DHT22;6196;48.398;11.736;2022-09-29T04:04:04;7.50;99.90
12268;DHT22;6196;48.398;11.736;2022-09-29T04:06:32;7.50;99.90
12268;DHT22;6196;48.398;11.736;2022-09-29T04:08:59;7.50;99.90
12268;DHT22;6196;48.398;11.736;2022-09-29T04:11:26;7.50;99.90
12268;DHT22;6196;48.398;11.736;2022-09-29T04:13:53;7.50;99.90
12268;DHT22;6196;48.398;11.736;2022-09-29T04:16:20;7.40;99.90
12268;DHT22;6196;48.398;11.736;2022-09-29T04:18:47;7.40;99.90
12268;DHT22;6196;48.398;11.736;2022-09-29T04:21:14;7.40;99.90
12268;DHT22;6196;48.398;11.736;2022-09-29T04:23:42;7.50;99.90
12268;DHT22;6196;48.398;11.736;2022-09-29T04:26:09;7.50;99.90
12268;DHT22;6196;48.398;11.736;2022-09-29T04:28:37;7.50;99.90
12268;DHT22;6196;48.398;11.736;2022-09-29T04:31:04;7.50;99.90
12268;DHT22;6196;48.398;11.736;2022-09-29T04:33:31;7.60;99.90
12268;DHT22;6196;48.398;11.736;2022-09-29T04:35:59;7.60;99.90
12268;DHT22;6196;48.398;11.736;2022-09-29T04:38:26;7.60;99.90
12268;DHT22;6196;48.398;11.736;2022-09-29T04:40:53;7.70;99.90
12268;DHT22;6196;48.398;11.736;2022-09-29T04:43:20;7.70;99.90
12268;DHT22;6196;48.398;11.736;2022-09-29T04:45:47;7.70;99.90
12268;DHT22;6196;48.398;11.736;2022-09-29T04:48:14;7.70;99.90
12268;DHT22;6196;48.398;11.736;2022-09-29T04:50:41;7.70;99.90
12268;DHT22;6196;48.398;11.736;2022-09-29T04:53:10;7.60;99.90
12268;DHT22;6196;48.398;11.736;2022-09-29T04:55:37;7.80;99.90
12268;DHT22;6196;48.398;11.736;2022-09-29T04:58:05;7.60;99.90
12268;DHT22;6196;48.398;11.736;2022-09-29T05:00:32;7.70;99.90
12268;DHT22;6196;48.398;11.736;2022-09-29T05:02:59;7.70;99.90
12268;DHT22;6196;48.398;11.736;2022-09-29T05:05:26;7.70;99.90
12268;DHT22;6196;48.398;11.736;2022-09-29T05:07:53;7.70;99.90
12268;DHT22;6196;48.398;11.736;2022-09-29T05:10:20;7.70;99.90
12268;DHT22;6196;48.398;11.736;2022-09-29T05:12:48;7.80;99.90
12268;DHT22;6196;48.398;11.736;2022-09-29T05:15:17;7.80;99.90
12268;DHT22;6196;48.398;11.736;2022-09-29T05:17:50;7.80;99.90
12268;DHT22;6196;48.398;11.736;2022-09-29T05:20:17;7.80;99.90
12268;DHT22;6196;48.398;11.736;2022-09-29T05:22:44;7.80;99.90
12268;DHT22;6196;48.398;11.736;2022-09-29T05:25:10;7.80;99.90
12268;DHT22;6196;48.398;11.736;2022-09-29T05:27:38;7.80;99.90
12268;DHT22;6196;48.398;11.736;2022-09-29T05:30:05;7.80;99.90
12268;DHT22;6196;48.398;11.736;2022-09-29T05:32:32;7.80;99.90
12268;DHT22;6196;48.398;11.736;2022-09-29T05:34:59;7.80;99.90
12268;DHT22;6196;48.398;11.736;2022-09-29T05:37:26;7.80;99.90
12268;DHT22;6196;48.398;11.736;2022-09-29T05:39:53;7.90;99.90
12268;DHT22;6196;48.398;11.736;2022-09-29T05:42:20;8.00;99.90
12268;DHT22;6196;48.398;11.736;2022-09-29T05:44:47;8.00;99.90
12268;DHT22;6196;48.398;11.736;2022-09-29T05:47:14;8.00;99.90
12268;DHT22;6196;48.398;11.736;2022-09-29T05:49:40;8.10;99.90
12268;DHT22;6196;48.398;11.736;2022-09-29T05:52:07;8.10;99.90
12268;DHT22;6196;48.398;11.736;2022-09-29T05:54:34;8.10;99.90
12268;DHT22;6196;48.398;11.736;2022-09-29T05:57:01;8.10;99.90
12268;DHT22;6196;48.398;11.736;2022-09-29T05:59:28;8.10;99.90
12268;DHT22;6196;48.398;11.736;2022-09-29T06:01:54;8.30;99.90
12268;DHT22;6196;48.398;11.736;2022-09-29T06:04:21;8.30;99.90
12268;DHT22;6196;48.398;11.736;2022-09-29T06:06:48;8.30;99.90
12268;DHT22;6196;48.398;11.736;2022-09-29T06:09:15;8.30;99.90
12268;DHT22;6196;48.398;11.736;2022-09-29T06:11:42;8.30;99.90
12268;DHT22;6196;48.398;11.736;2022-09-29T06:14:09;8.40;99.90
12268;DHT22;6196;48.398;11.736;2022-09-29T06:16:36;8.50;99.90
12268;DHT22;6196;48.398;11.736;2022-09-29T06:19:03;8.70;99.90
12268;DHT22;6196;48.398;11.736;2022-09-29T06:21:31;8.70;99.90
12268;DHT22;6196;48.398;11.736;2022-09-29T06:24:00;8.80;99.90
12268;DHT22;6196;48.398;11.736;2022-09-29T06:26:28;9.00;99.90
12268;DHT22;6196;48.398;11.736;2022-09-29T06:28:55;9.10;99.90
12268;DHT22;6196;48.398;11.736;2022-09-29T06:31:25;9.30;99.90
12268;DHT22;6196;48.398;11.736;2022-09-29T06:34:02;9.40;99.90
12268;DHT22;6196;48.398;11.736;2022-09-29T06:36:34;9.50;99.90
12268;DHT22;6196;48.398;11.736;2022-09-29T06:39:23;9.60;99.90
12268;DHT22;6196;48.398;11.736;2022-09-29T06:41:50;9.80;99.90
12268;DHT22;6196;48.398;11.736;2022-09-29T06:44:24;9.70;99.90
12268;DHT22;6196;48.398;11.736;2022-09-29T06:46:52;9.60;99.90
12268;DHT22;6196;48.398;11.736;2022-09-29T06:49:20;9.70;99.90
12268;DHT22;6196;48.398;11.736;2022-09-29T06:51:47;9.80;99.90
12268;DHT22;6196;48.398;11.736;2022-09-29T06:54:19;9.80;99.90
12268;DHT22;6196;48.398;11.736;2022-09-29T06:56:48;9.80;99.90
12268;DHT22;6196;48.398;11.736;2022-09-29T06:59:16;10.00;99.90
12268;DHT22;6196;48.398;11.736;2022-09-29T07:01:43;10.00;99.90
12268;DHT22;6196;48.398;11.736;2022-09-29T07:04:17;10.10;99.90
12268;DHT22;6196;48.398;11.736;2022-09-29T07:06:46;10.20;99.90
12268;DHT22;6196;48.398;11.736;2022-09-29T07:09:13;10.00;99.90
12268;DHT22;6196;48.398;11.736;2022-09-29T07:11:44;10.00;99.90
12268;DHT22;6196;48.398;11.736;2022-09-29T07:14:17;10.00;99.90
12268;DHT22;6196;48.398;11.736;2022-09-29T07:16:45;10.00;99.90
12268;DHT22;6196;48.398;11.736;2022-09-29T07:19:15;10.10;99.90
12268;DHT22;6196;48.398;11.736;2022-09-29T07:21:44;10.20;99.90
12268;DHT22;6196;48.398;11.736;2022-09-29T07:24:12;10.30;99.90
12268;DHT22;6196;48.398;11.736;2022-09-29T07:26:38;10.30;99.90
12268;DHT22;6196;48.398;11.736;2022-09-29T07:29:05;10.40;99.90
12268;DHT22;6196;48.398;11.736;2022-09-29T07:31:39;10.40;99.90
12268;DHT22;6196;48.398;11.736;2022-09-29T07:34:18;10.30;99.90
12268;DHT22;6196;48.398;11.736;2022-09-29T07:36:45;10.50;99.90
12268;DHT22;6196;48.398;11.736;2022-09-29T07:39:12;10.60;99.90
12268;DHT22;6196;48.398;11.736;2022-09-29T07:41:39;10.50;99.90
12268;DHT22;6196;48.398;11.736;2022-09-29T07:44:05;10.60;99.90
12268;DHT22;6196;48.398;11.736;2022-09-29T07:46:32;10.70;99.90
12268;DHT22;6196;48.398;11.736;2022-09-29T07:48:59;11.00;99.90
12268;DHT22;6196;48.398;11.736;2022-09-29T07:51:26;11.50;99.90
12268;DHT22;6196;48.398;11.736;2022-09-29T07:53:53;11.70;99.90
12268;DHT22;6196;48.398;11.736;2022-09-29T07:56:21;12.10;99.90
12268;DHT22;6196;48.398;11.736;2022-09-29T07:58:49;11.80;99.90
12268;DHT22;6196;48.398;11.736;2022-09-29T08:01:17;11.60;99.90
12268;DHT22;6196;48.398;11.736;2022-09-29T08:03:50;11.50;99.90
12268;DHT22;6196;48.398;11.736;2022-09-29T08:06:18;11.80;99.90
12268;DHT22;6196;48.398;11.736;2022-09-29T08:08:46;12.00;99.90
12268;DHT22;6196;48.398;11.736;2022-09-29T08:11:30;12.10;99.90
12268;DHT22;6196;48.398;11.736;2022-09-29T08:13:59;12.20;99.90
12268;DHT22;6196;48.398;11.736;2022-09-29T08:16:26;12.30;99.90
12268;DHT22;6196;48.398;11.736;2022-09-29T08:18:54;12.50;99.90
12268;DHT22;6196;48.398;11.736;2022-09-29T08:21:20;12.70;99.90
12268;DHT22;6196;48.398;11.736;2022-09-29T08:23:47;12.80;99.90
12268;DHT22;6196;48.398;11.736;2022-09-29T08:26:19;12.70;99.90
12268;DHT22;6196;48.398;11.736;2022-09-29T08:29:05;12.70;99.90
12268;DHT22;6196;48.398;11.736;2022-09-29T08:31:34;12.60;99.90
12268;DHT22;6196;48.398;11.736;2022-09-29T08:34:03;12.50;99.90
12268;DHT22;6196;48.398;11.736;2022-09-29T08:36:30;12.50;99.90
12268;DHT22;6196;48.398;11.736;2022-09-29T08:38:58;12.40;99.90
12268;DHT22;6196;48.398;11.736;2022-09-29T08:44:28;12.40;99.90
12268;DHT22;6196;48.398;11.736;2022-09-29T08:47:16;12.50;99.90
12268;DHT22;6196;48.398;11.736;2022-09-29T08:49:54;12.40;99.90
12268;DHT22;6196;48.398;11.736;2022-09-29T08:52:36;12.50;99.90
12268;DHT22;6196;48.398;11.736;2022-09-29T08:57:51;12.50;99.90
12268;DHT22;6196;48.398;11.736;2022-09-29T09:00:32;12.50;99.90
12268;DHT22;6196;48.398;11.736;2022-09-29T09:06:06;12.70;99.90
12268;DHT22;6196;48.398;11.736;2022-09-29T09:08:56;12.80;99.90
12268;DHT22;6196;48.398;11.736;2022-09-29T09:20:32;13.00;99.90
12268;DHT22;6196;48.398;11.736;2022-09-29T09:23:21;12.90;99.90
12268;DHT22;6196;48.398;11.736;2022-09-29T09:25:54;13.00;99.90
12268;DHT22;6196;48.398;11.736;2022-09-29T09:31:18;13.20;99.90
12268;DHT22;6196;48.398;11.736;2022-09-29T09:33:56;13.10;99.90
12268;DHT22;6196;48.398;11.736;2022-09-29T09:36:51;13.20;99.90
12268;DHT22;6196;48.398;11.736;2022-09-29T09:39:46;13.20;99.90
12268;DHT22;6196;48.398;11.736;2022-09-29T09:42:26;13.20;99.90
12268;DHT22;6196;48.398;11.736;2022-09-29T09:45:09;13.10;99.90
12268;DHT22;6196;48.398;11.736;2022-09-29T09:47:44;13.10;99.90
12268;DHT22;6196;48.398;11.736;2022-09-29T09:50:17;13.10;99.90
12268;DHT22;6196;48.398;11.736;2022-09-29T09:53:00;12.90;99.90
12268;DHT22;6196;48.398;11.736;2022-09-29T09:55:41;12.80;99.90
12268;DHT22;6196;48.398;11.736;2022-09-29T10:01:02;12.60;99.90
12268;DHT22;6196;48.398;11.736;2022-09-29T10:03:31;12.60;99.90
12268;DHT22;6196;48.398;11.736;2022-09-29T10:05:59;12.50;99.90
12268;DHT22;6196;48.398;11.736;2022-09-29T10:08:30;12.60;99.90
12268;DHT22;6196;48.398;11.736;2022-09-29T10:11:26;12.70;99.90
12268;DHT22;6196;48.398;11.736;2022-09-29T10:14:20;12.80;99.90
12268;DHT22;6196;48.398;11.736;2022-09-29T10:17:01;12.70;99.90
12268;DHT22;6196;48.398;11.736;2022-09-29T10:19:56;12.70;99.90
12268;DHT22;6196;48.398;11.736;2022-09-29T10:22:23;12.90;99.90
12268;DHT22;6196;48.398;11.736;2022-09-29T10:25:18;13.00;99.90
12268;DHT22;6196;48.398;11.736;2022-09-29T10:27:52;13.00;99.90
12268;DHT22;6196;48.398;11.736;2022-09-29T10:30:33;12.90;99.90
12268;DHT22;6196;48.398;11.736;2022-09-29T10:33:03;12.90;99.90
12268;DHT22;6196;48.398;11.736;2022-09-29T10:35:38;12.90;99.90
12268;DHT22;6196;48.398;11.736;2022-09-29T10:38:17;12.90;99.90
12268;DHT22;6196;48.398;11.736;2022-09-29T10:41:02;12.80;99.90
12268;DHT22;6196;48.398;11.736;2022-09-29T10:43:42;12.70;99.90
12268;DHT22;6196;48.398;11.736;2022-09-29T10:49:19;12.70;99.90
12268;DHT22;6196;48.398;11.736;2022-09-29T10:54:35;12.60;99.90
12268;DHT22;6196;48.398;11.736;2022-09-29T10:57:13;12.50;99.90
12268;DHT22;6196;48.398;11.736;2022-09-29T10:59:48;12.60;99.90
12268;DHT22;6196;48.398;11.736;2022-09-29T11:02:31;12.50;99.90
12268;DHT22;6196;48.398;11.736;2022-09-29T11:05:18;12.40;99.90
12268;DHT22;6196;48.398;11.736;2022-09-29T11:07:49;12.30;99.90
12268;DHT22;6196;48.398;11.736;2022-09-29T11:10:27;12.10;99.90
12268;DHT22;6196;48.398;11.736;2022-09-29T11:15:50;12.00;99.90
12268;DHT22;6196;48.398;11.736;2022-09-29T11:18:44;12.00;99.90
12268;DHT22;6196;48.398;11.736;2022-09-29T11:27:44;12.10;99.90
12268;DHT22;6196;48.398;11.736;2022-09-29T11:30:19;12.10;99.90
12268;DHT22;6196;48.398;11.736;2022-09-29T11:32:54;12.10;99.90
12268;DHT22;6196;48.398;11.736;2022-09-29T11:35:53;12.10;99.90
12268;DHT22;6196;48.398;11.736;2022-09-29T11:38:47;12.10;99.90
12268;DHT22;6196;48.398;11.736;2022-09-29T11:41:39;12.10;99.90
12268;DHT22;6196;48.398;11.736;2022-09-29T11:44:42;12.20;99.90
12268;DHT22;6196;48.398;11.736;2022-09-29T11:47:27;12.20;99.90
12268;DHT22;6196;48.398;11.736;2022-09-29T11:50:08;12.30;99.90
12268;DHT22;6196;48.398;11.736;2022-09-29T12:01:53;12.60;99.90
12268;DHT22;6196;48.398;11.736;2022-09-29T12:04:54;12.60;99.90
12268;DHT22;6196;48.398;11.736;2022-09-29T12:07:48;12.50;99.90
12268;DHT22;6196;48.398;11.736;2022-09-29T12:10:42;12.50;99.90
12268;DHT22;6196;48.398;11.736;2022-09-29T12:16:50;12.60;99.90
12268;DHT22;6196;48.398;11.736;2022-09-29T12:19:13;12.60;99.90
12268;DHT22;6196;48.398;11.736;2022-09-29T12:22:02;12.70;99.90
12268;DHT22;6196;48.398;11.736;2022-09-29T12:24:36;12.70;99.90
12268;DHT22;6196;48.398;11.736;2022-09-29T12:27:17;12.70;99.90
12268;DHT22;6196;48.398;11.736;2022-09-29T12:30:05;12.90;99.90
12268;DHT22;6196;48.398;11.736;2022-09-29T12:32:48;13.00;99.90
12268;DHT22;6196;48.398;11.736;2022-09-29T12:38:11;12.90;99.90
12268;DHT22;6196;48.398;11.736;2022-09-29T12:41:10;13.10;99.90
12268;DHT22;6196;48.398;11.736;2022-09-29T12:46:42;13.10;99.90
12268;DHT22;6196;48.398;11.736;2022-09-29T12:49:30;13.20;99.90
12268;DHT22;6196;48.398;11.736;2022-09-29T12:52:02;13.30;99.90
12268;DHT22;6196;48.398;11.736;2022-09-29T12:54:41;13.50;99.90
12268;DHT22;6196;48.398;11.736;2022-09-29T12:57:19;13.60;99.90
12268;DHT22;6196;48.398;11.736;2022-09-29T13:00:00;13.70;99.90
12268;DHT22;6196;48.398;11.736;2022-09-29T13:02:45;13.80;99.90
12268;DHT22;6196;48.398;11.736;2022-09-29T13:05:46;13.90;99.90
12268;DHT22;6196;48.398;11.736;2022-09-29T13:21:03;13.70;99.90
12268;DHT22;6196;48.398;11.736;2022-09-29T13:23:59;13.70;99.90
12268;DHT22;6196;48.398;11.736;2022-09-29T13:29:49;13.50;99.90
12268;DHT22;6196;48.398;11.736;2022-09-29T13:32:21;13.50;99.90
12268;DHT22;6196;48.398;11.736;2022-09-29T13:34:58;13.60;99.90
12268;DHT22;6196;48.398;11.736;2022-09-29T13:37:32;13.60;99.90
12268;DHT22;6196;48.398;11.736;2022-09-29T13:40:19;13.50;99.90
12268;DHT22;6196;48.398;11.736;2022-09-29T13:42:49;13.40;99.90
12268;DHT22;6196;48.398;11.736;2022-09-29T13:47:51;13.30;99.90
12268;DHT22;6196;48.398;11.736;2022-09-29T13:50:45;13.40;99.90
12268;DHT22;6196;48.398;11.736;2022-09-29T13:58:38;13.60;99.90
12268;DHT22;6196;48.398;11.736;2022-09-29T14:01:10;13.70;99.90
12268;DHT22;6196;48.398;11.736;2022-09-29T14:03:40;13.60;99.90
12268;DHT22;6196;48.398;11.736;2022-09-29T14:06:21;13.50;99.90
12268;DHT22;6196;48.398;11.736;2022-09-29T14:09:14;13.40;99.90
12268;DHT22;6196;48.398;11.736;2022-09-29T14:11:51;13.20;99.90
12268;DHT22;6196;48.398;11.736;2022-09-29T14:14:38;13.10;99.90
12268;DHT22;6196;48.398;11.736;2022-09-29T14:17:14;13.00;99.90
12268;DHT22;6196;48.398;11.736;2022-09-29T14:30:43;12.60;99.90
12268;DHT22;6196;48.398;11.736;2022-09-29T14:33:26;12.60;99.90
12268;DHT22;6196;48.398;11.736;2022-09-29T14:55:55;12.00;99.90
12268;DHT22;6196;48.398;11.736;2022-09-29T15:01:28;11.90;99.90
12268;DHT22;6196;48.398;11.736;2022-09-29T15:04:03;11.90;99.90
12268;DHT22;6196;48.398;11.736;2022-09-29T15:06:32;12.00;99.90
12268;DHT22;6196;48.398;11.736;2022-09-29T15:09:01;12.00;99.90
12268;DHT22;6196;48.398;11.736;2022-09-29T15:11:35;11.90;99.90
12268;DHT22;6196;48.398;11.736;2022-09-29T15:14:23;11.90;99.90
12268;DHT22;6196;48.398;11.736;2022-09-29T15:25:37;11.90;99.90
12268;DHT22;6196;48.398;11.736;2022-09-29T15:30:51;11.70;99.90
12268;DHT22;6196;48.398;11.736;2022-09-29T15:33:26;11.70;99.90
12268;DHT22;6196;48.398;11.736;2022-09-29T15:36:02;11.70;99.90
12268;DHT22;6196;48.398;11.736;2022-09-29T15:38:34;11.60;99.90
12268;DHT22;6196;48.398;11.736;2022-09-29T15:41:17;11.60;99.90
12268;DHT22;6196;48.398;11.736;2022-09-29T15:46:35;11.60;99.90
12268;DHT22;6196;48.398;11.736;2022-09-29T15:51:40;11.50;99.90
12268;DHT22;6196;48.398;11.736;2022-09-29T15:54:12;11.50;99.90
12268;DHT22;6196;48.398;11.736;2022-09-29T15:56:40;11.50;99.90
12268;DHT22;6196;48.398;11.736;2022-09-29T15:59:42;11.50;99.90
12268;DHT22;6196;48.398;11.736;2022-09-29T16:02:28;11.40;99.90
12268;DHT22;6196;48.398;11.736;2022-09-29T16:05:08;11.40;99.90
12268;DHT22;6196;48.398;11.736;2022-09-29T16:07:47;11.20;99.90
12268;DHT22;6196;48.398;11.736;2022-09-29T16:10:21;11.20;99.90
12268;DHT22;6196;48.398;11.736;2022-09-29T16:12:54;11.20;99.90
12268;DHT22;6196;48.398;11.736;2022-09-29T16:15:32;11.10;99.90
12268;DHT22;6196;48.398;11.736;2022-09-29T16:18:07;11.20;99.90
12268;DHT22;6196;48.398;11.736;2022-09-29T16:20:36;11.00;99.90
12268;DHT22;6196;48.398;11.736;2022-09-29T16:23:07;11.00;99.90
12268;DHT22;6196;48.398;11.736;2022-09-29T16:28:36;10.90;99.90
12268;DHT22;6196;48.398;11.736;2022-09-29T16:31:14;10.80;99.90
12268;DHT22;6196;48.398;11.736;2022-09-29T16:33:46;10.80;99.90
12268;DHT22;6196;48.398;11.736;2022-09-29T16:36:22;10.80;99.90
12268;DHT22;6196;48.398;11.736;2022-09-29T16:38:52;10.70;99.90
12268;DHT22;6196;48.398;11.736;2022-09-29T16:41:29;10.60;99.90
12268;DHT22;6196;48.398;11.736;2022-09-29T16:49:35;10.50;99.90
12268;DHT22;6196;48.398;11.736;2022-09-29T16:52:19;10.50;99.90
12268;DHT22;6196;48.398;11.736;2022-09-29T16:54:49;10.50;99.90
12268;DHT22;6196;48.398;11.736;2022-09-29T16:59:57;10.40;99.90
12268;DHT22;6196;48.398;11.736;2022-09-29T17:02:26;10.40;99.90
12268;DHT22;6196;48.398;11.736;2022-09-29T17:04:55;10.30;99.90
12268;DHT22;6196;48.398;11.736;2022-09-29T17:07:24;10.30;99.90
12268;DHT22;6196;48.398;11.736;2022-09-29T17:09:59;10.30;99.90
12268;DHT22;6196;48.398;11.736;2022-09-29T17:12:27;10.20;99.90
12268;DHT22;6196;48.398;11.736;2022-09-29T17:14:55;10.10;99.90
12268;DHT22;6196;48.398;11.736;2022-09-29T17:17:25;10.20;99.90
12268;DHT22;6196;48.398;11.736;2022-09-29T17:19:54;10.10;99.90
12268;DHT22;6196;48.398;11.736;2022-09-29T17:22:34;10.10;99.90
12268;DHT22;6196;48.398;11.736;2022-09-29T17:25:05;10.10;99.90
12268;DHT22;6196;48.398;11.736;2022-09-29T17:27:32;10.10;99.90
12268;DHT22;6196;48.398;11.736;2022-09-29T17:30:20;10.10;99.90
12268;DHT22;6196;48.398;11.736;2022-09-29T17:32:51;10.10;99.90
12268;DHT22;6196;48.398;11.736;2022-09-29T17:35:27;9.90;99.90
12268;DHT22;6196;48.398;11.736;2022-09-29T17:37:56;10.00;99.90
12268;DHT22;6196;48.398;11.736;2022-09-29T17:43:28;9.90;99.90
12268;DHT22;6196;48.398;11.736;2022-09-29T17:46:00;9.90;99.90
12268;DHT22;6196;48.398;11.736;2022-09-29T17:48:28;9.90;99.90
12268;DHT22;6196;48.398;11.736;2022-09-29T17:50:55;10.00;99.90
12268;DHT22;6196;48.398;11.736;2022-09-29T17:53:24;10.10;99.90
12268;DHT22;6196;48.398;11.736;2022-09-29T17:55:53;10.00;99.90
12268;DHT22;6196;48.398;11.736;2022-09-29T17:58:22;10.00;99.90
12268;DHT22;6196;48.398;11.736;2022-09-29T18:00:51;10.00;99.90
12268;DHT22;6196;48.398;11.736;2022-09-29T18:03:20;9.90;99.90
12268;DHT22;6196;48.398;11.736;2022-09-29T18:05:49;9.90;99.90
12268;DHT22;6196;48.398;11.736;2022-09-29T18:08:23;9.90;99.90
12268;DHT22;6196;48.398;11.736;2022-09-29T18:10:53;9.90;99.90
12268;DHT22;6196;48.398;11.736;2022-09-29T18:13:22;9.90;99.90
12268;DHT22;6196;48.398;11.736;2022-09-29T18:15:50;9.90;99.90
12268;DHT22;6196;48.398;11.736;2022-09-29T18:18:19;9.90;99.90
12268;DHT22;6196;48.398;11.736;2022-09-29T18:20:48;9.90;99.90
12268;DHT22;6196;48.398;11.736;2022-09-29T18:23:17;9.90;99.90
12268;DHT22;6196;48.398;11.736;2022-09-29T18:25:46;9.90;99.90
12268;DHT22;6196;48.398;11.736;2022-09-29T18:28:16;9.90;99.90
12268;DHT22;6196;48.398;11.736;2022-09-29T18:30:46;9.80;99.90
12268;DHT22;6196;48.398;11.736;2022-09-29T18:33:16;10.00;99.90
12268;DHT22;6196;48.398;11.736;2022-09-29T18:35:49;9.90;99.90
12268;DHT22;6196;48.398;11.736;2022-09-29T18:38:17;10.00;99.90
12268;DHT22;6196;48.398;11.736;2022-09-29T18:40:44;9.90;99.90
12268;DHT22;6196;48.398;11.736;2022-09-29T18:43:13;9.90;99.90
12268;DHT22;6196;48.398;11.736;2022-09-29T18:45:41;10.00;99.90
12268;DHT22;6196;48.398;11.736;2022-09-29T18:48:13;9.90;99.90
12268;DHT22;6196;48.398;11.736;2022-09-29T18:50:46;9.90;99.90
12268;DHT22;6196;48.398;11.736;2022-09-29T18:53:17;9.90;99.90
12268;DHT22;6196;48.398;11.736;2022-09-29T18:55:46;9.90;99.90
12268;DHT22;6196;48.398;11.736;2022-09-29T18:58:17;9.90;99.90
12268;DHT22;6196;48.398;11.736;2022-09-29T19:00:50;9.90;99.90
12268;DHT22;6196;48.398;11.736;2022-09-29T19:03:20;9.80;99.90
12268;DHT22;6196;48.398;11.736;2022-09-29T19:05:49;9.80;99.90
12268;DHT22;6196;48.398;11.736;2022-09-29T19:08:17;9.80;99.90
12268;DHT22;6196;48.398;11.736;2022-09-29T19:10:52;9.80;99.90